sensor_id;sensor_type;location;lat;lon;timestamp;pressure;altitude;pressure_sealevel;temperature;humidity
14790;BME280;7486;51.010;10.366;2024-01-06T00:02:08;96997.28;;;2.50;75.29
14790;BME280;7486;51.010;10.366;2024-01-06T00:04:56;97004.41;;;2.56;75.31
14790;BME280;7486;51.010;10.366;2024-01-06T00:07:42;97013.13;;;2.63;74.93
14790;BME280;7486;51.010;10.366;2024-01-06T00:10:28;96997.78;;;2.60;74.75
14790;BME280;7486;51.010;10.366;2024-01-06T00:13:14;97010.38;;;2.72;74.10
14790;BME280;7486;51.010;10.366;2024-01-06T00:16:00;97011.06;;;2.59;74.65
14790;BME280;7486;51.010;10.366;2024-01-06T00:18:46;97011.50;;;2.62;74.57
14790;BME280;7486;51.010;10.366;2024-01-06T00:21:32;97009.34;;;2.66;74.77
14790;BME280;7486;51.010;10.366;2024-01-06T00:24:17;97010.59;;;2.70;74.37
14790;BME280;7486;51.010;10.366;2024-01-06T00:27:03;97019.66;;;2.74;74.25
14790;BME280;7486;51.010;10.366;2024-01-06T00:29:49;97017.75;;;2.83;73.81
14790;BME280;7486;51.010;10.366;2024-01-06T00:32:35;97015.38;;;2.88;73.94
14790;BME280;7486;51.010;10.366;2024-01-06T00:35:22;97009.97;;;2.89;73.57
14790;BME280;7486;51.010;10.366;2024-01-06T00:38:08;97018.72;;;2.82;74.13
14790;BME280;7486;51.010;10.366;2024-01-06T00:40:53;97011.91;;;2.81;74.55
14790;BME280;7486;51.010;10.366;2024-01-06T00:43:39;97026.72;;;2.74;73.98
14790;BME280;7486;51.010;10.366;2024-01-06T00:46:24;97018.59;;;2.69;74.75
14790;BME280;7486;51.010;10.366;2024-01-06T00:49:10;97030.69;;;2.70;74.60
14790;BME280;7486;51.010;10.366;2024-01-06T00:51:56;97033.44;;;2.83;74.53
14790;BME280;7486;51.010;10.366;2024-01-06T00:54:41;97033.06;;;2.86;73.62
14790;BME280;7486;51.010;10.366;2024-01-06T00:57:27;97036.94;;;2.90;74.10
14790;BME280;7486;51.010;10.366;2024-01-06T01:00:13;97035.56;;;2.94;73.93
14790;BME280;7486;51.010;10.366;2024-01-06T01:02:58;97034.94;;;2.92;73.39
14790;BME280;7486;51.010;10.366;2024-01-06T01:05:44;97032.31;;;2.92;73.70
14790;BME280;7486;51.010;10.366;2024-01-06T01:08:30;97039.78;;;2.95;73.83
14790;BME280;7486;51.010;10.366;2024-01-06T01:11:15;97015.69;;;2.78;73.83
14790;BME280;7486;51.010;10.366;2024-01-06T01:14:01;97046.09;;;3.00;73.73
14790;BME280;7486;51.010;10.366;2024-01-06T01:16:46;97044.91;;;3.03;73.33
14790;BME280;7486;51.010;10.366;2024-01-06T01:19:32;97053.13;;;3.00;73.45
14790;BME280;7486;51.010;10.366;2024-01-06T01:22:17;97061.34;;;2.97;73.83
14790;BME280;7486;51.010;10.366;2024-01-06T01:25:03;97033.06;;;2.86;73.95
14790;BME280;7486;51.010;10.366;2024-01-06T01:27:49;97069.03;;;3.05;73.88
14790;BME280;7486;51.010;10.366;2024-01-06T01:30:35;97057.38;;;3.01;73.69
14790;BME280;7486;51.010;10.366;2024-01-06T01:33:21;97069.16;;;3.11;73.83
14790;BME280;7486;51.010;10.366;2024-01-06T01:36:06;97061.91;;;3.13;73.33
14790;BME280;7486;51.010;10.366;2024-01-06T01:38:52;97061.34;;;2.97;73.35
14790;BME280;7486;51.010;10.366;2024-01-06T01:41:37;97067.81;;;3.01;73.43
14790;BME280;7486;51.010;10.366;2024-01-06T01:44:23;97077.00;;;3.11;73.48
14790;BME280;7486;51.010;10.366;2024-01-06T01:47:08;97076.28;;;3.03;73.16
14790;BME280;7486;51.010;10.366;2024-01-06T01:49:54;97073.94;;;3.08;73.31
14790;BME280;7486;51.010;10.366;2024-01-06T01:52:41;97072.31;;;3.07;73.54
14790;BME280;7486;51.010;10.366;2024-01-06T01:55:27;97077.59;;;3.13;73.15
14790;BME280;7486;51.010;10.366;2024-01-06T01:58:13;97068.00;;;3.21;73.22
14790;BME280;7486;51.010;10.366;2024-01-06T02:00:59;97075.22;;;3.18;72.84
14790;BME280;7486;51.010;10.366;2024-01-06T02:03:45;97076.03;;;3.19;72.47
14790;BME280;7486;51.010;10.366;2024-01-06T02:06:31;97084.31;;;3.23;72.83
14790;BME280;7486;51.010;10.366;2024-01-06T02:09:16;97081.09;;;3.21;73.29
14790;BME280;7486;51.010;10.366;2024-01-06T02:12:02;97085.88;;;3.17;72.80
14790;BME280;7486;51.010;10.366;2024-01-06T02:14:47;97073.25;;;3.21;73.43
14790;BME280;7486;51.010;10.366;2024-01-06T02:17:33;97079.66;;;3.18;73.15
14790;BME280;7486;51.010;10.366;2024-01-06T02:20:19;97005.44;;;2.77;73.42
14790;BME280;7486;51.010;10.366;2024-01-06T02:23:05;97074.78;;;3.15;73.30
14790;BME280;7486;51.010;10.366;2024-01-06T02:25:50;97080.22;;;3.13;73.46
14790;BME280;7486;51.010;10.366;2024-01-06T02:28:36;97079.59;;;3.11;74.00
14790;BME280;7486;51.010;10.366;2024-01-06T02:31:21;97076.84;;;2.98;73.94
14790;BME280;7486;51.010;10.366;2024-01-06T02:34:07;97075.34;;;2.89;74.56
14790;BME280;7486;51.010;10.366;2024-01-06T02:36:53;97080.47;;;2.97;74.32
14790;BME280;7486;51.010;10.366;2024-01-06T02:39:38;97085.69;;;2.97;74.25
14790;BME280;7486;51.010;10.366;2024-01-06T02:42:24;97091.66;;;2.91;74.49
14790;BME280;7486;51.010;10.366;2024-01-06T02:45:10;97101.19;;;2.99;74.19
14790;BME280;7486;51.010;10.366;2024-01-06T02:47:55;97092.66;;;2.90;74.32
14790;BME280;7486;51.010;10.366;2024-01-06T02:50:41;97098.13;;;2.95;74.25
14790;BME280;7486;51.010;10.366;2024-01-06T02:53:26;97096.31;;;2.96;73.95
14790;BME280;7486;51.010;10.366;2024-01-06T02:56:12;97096.16;;;2.97;74.18
14790;BME280;7486;51.010;10.366;2024-01-06T02:58:57;97106.78;;;2.96;74.32
14790;BME280;7486;51.010;10.366;2024-01-06T03:01:42;97103.63;;;3.00;74.12
14790;BME280;7486;51.010;10.366;2024-01-06T03:04:28;97107.69;;;3.03;74.11
14790;BME280;7486;51.010;10.366;2024-01-06T03:07:14;97109.91;;;3.06;74.29
14790;BME280;7486;51.010;10.366;2024-01-06T03:09:59;97111.34;;;3.08;73.44
14790;BME280;7486;51.010;10.366;2024-01-06T03:12:44;97116.22;;;3.11;73.69
14790;BME280;7486;51.010;10.366;2024-01-06T03:15:30;97116.88;;;2.99;73.90
14790;BME280;7486;51.010;10.366;2024-01-06T03:18:16;97110.84;;;2.98;74.38
14790;BME280;7486;51.010;10.366;2024-01-06T03:21:02;97116.34;;;3.03;73.87
14790;BME280;7486;51.010;10.366;2024-01-06T03:23:48;97127.31;;;3.13;73.77
14790;BME280;7486;51.010;10.366;2024-01-06T03:26:33;97114.66;;;3.17;73.94
14790;BME280;7486;51.010;10.366;2024-01-06T03:29:18;97114.84;;;3.15;73.49
14790;BME280;7486;51.010;10.366;2024-01-06T03:32:05;97119.16;;;3.23;74.03
14790;BME280;7486;51.010;10.366;2024-01-06T03:34:50;97122.75;;;3.22;73.61
14790;BME280;7486;51.010;10.366;2024-01-06T03:37:36;97123.00;;;3.06;73.63
14790;BME280;7486;51.010;10.366;2024-01-06T03:40:21;97125.25;;;3.09;74.28
14790;BME280;7486;51.010;10.366;2024-01-06T03:43:07;97125.94;;;3.18;73.72
14790;BME280;7486;51.010;10.366;2024-01-06T03:45:53;97121.88;;;3.15;74.15
14790;BME280;7486;51.010;10.366;2024-01-06T03:48:38;97117.75;;;3.06;74.05
14790;BME280;7486;51.010;10.366;2024-01-06T03:51:24;97129.47;;;3.10;74.38
14790;BME280;7486;51.010;10.366;2024-01-06T03:54:10;97125.69;;;3.12;74.44
14790;BME280;7486;51.010;10.366;2024-01-06T03:56:55;97125.75;;;3.19;74.61
14790;BME280;7486;51.010;10.366;2024-01-06T03:59:41;97049.44;;;2.73;73.69
14790;BME280;7486;51.010;10.366;2024-01-06T04:02:27;97112.38;;;3.07;74.42
14790;BME280;7486;51.010;10.366;2024-01-06T04:05:13;97137.41;;;3.16;74.72
14790;BME280;7486;51.010;10.366;2024-01-06T04:07:58;97133.97;;;3.16;75.00
14790;BME280;7486;51.010;10.366;2024-01-06T04:10:44;97141.19;;;3.14;74.07
14790;BME280;7486;51.010;10.366;2024-01-06T04:13:30;97143.25;;;3.18;74.29
14790;BME280;7486;51.010;10.366;2024-01-06T04:16:15;97140.63;;;3.18;74.53
14790;BME280;7486;51.010;10.366;2024-01-06T04:19:01;97145.53;;;3.22;74.14
14790;BME280;7486;51.010;10.366;2024-01-06T04:21:46;97150.06;;;2.98;74.22
14790;BME280;7486;51.010;10.366;2024-01-06T04:24:32;97150.38;;;2.89;75.19
14790;BME280;7486;51.010;10.366;2024-01-06T04:27:17;97145.59;;;2.78;75.59
14790;BME280;7486;51.010;10.366;2024-01-06T04:30:03;97111.56;;;2.56;75.36
14790;BME280;7486;51.010;10.366;2024-01-06T04:32:49;97159.41;;;2.72;76.02
14790;BME280;7486;51.010;10.366;2024-01-06T04:35:34;97152.28;;;2.80;75.77
14790;BME280;7486;51.010;10.366;2024-01-06T04:38:20;97156.94;;;2.85;75.92
14790;BME280;7486;51.010;10.366;2024-01-06T04:41:06;97154.50;;;2.98;75.58
14790;BME280;7486;51.010;10.366;2024-01-06T04:43:51;97152.50;;;3.00;74.95
14790;BME280;7486;51.010;10.366;2024-01-06T04:46:37;97153.19;;;3.08;75.49
14790;BME280;7486;51.010;10.366;2024-01-06T04:49:22;97119.63;;;2.91;74.80
14790;BME280;7486;51.010;10.366;2024-01-06T04:52:08;97156.09;;;3.13;74.86
14790;BME280;7486;51.010;10.366;2024-01-06T04:54:54;97156.53;;;3.17;74.50
14790;BME280;7486;51.010;10.366;2024-01-06T04:57:39;97161.75;;;3.17;74.29
14790;BME280;7486;51.010;10.366;2024-01-06T05:00:25;97155.72;;;3.16;74.53
14790;BME280;7486;51.010;10.366;2024-01-06T05:03:10;97169.34;;;3.12;73.97
14790;BME280;7486;51.010;10.366;2024-01-06T05:05:56;97160.59;;;3.05;74.82
14790;BME280;7486;51.010;10.366;2024-01-06T05:08:42;97162.16;;;2.99;74.65
14790;BME280;7486;51.010;10.366;2024-01-06T05:11:27;97167.22;;;3.01;74.68
14790;BME280;7486;51.010;10.366;2024-01-06T05:14:13;97166.13;;;2.95;74.73
14790;BME280;7486;51.010;10.366;2024-01-06T05:16:59;97169.84;;;3.01;74.79
14790;BME280;7486;51.010;10.366;2024-01-06T05:19:44;97160.72;;;2.97;74.42
14790;BME280;7486;51.010;10.366;2024-01-06T05:22:30;97119.28;;;2.64;74.51
14790;BME280;7486;51.010;10.366;2024-01-06T05:25:15;97165.06;;;2.90;74.57
14790;BME280;7486;51.010;10.366;2024-01-06T05:28:01;97167.41;;;2.85;74.61
14790;BME280;7486;51.010;10.366;2024-01-06T05:30:46;97171.81;;;2.84;74.75
14790;BME280;7486;51.010;10.366;2024-01-06T05:33:32;97168.16;;;2.79;74.71
14790;BME280;7486;51.010;10.366;2024-01-06T05:36:21;97173.44;;;2.85;75.17
14790;BME280;7486;51.010;10.366;2024-01-06T05:39:07;97167.59;;;2.83;74.54
14790;BME280;7486;51.010;10.366;2024-01-06T05:41:53;97168.78;;;2.81;74.97
14790;BME280;7486;51.010;10.366;2024-01-06T05:44:38;97174.63;;;2.83;74.41
14790;BME280;7486;51.010;10.366;2024-01-06T05:47:24;97163.72;;;2.79;74.57
14790;BME280;7486;51.010;10.366;2024-01-06T05:50:10;97162.84;;;2.72;74.55
14790;BME280;7486;51.010;10.366;2024-01-06T05:52:56;97165.44;;;2.57;74.58
14790;BME280;7486;51.010;10.366;2024-01-06T05:55:41;97181.66;;;2.68;74.39
14790;BME280;7486;51.010;10.366;2024-01-06T05:58:27;97186.44;;;2.64;74.42
14790;BME280;7486;51.010;10.366;2024-01-06T06:01:12;97201.34;;;2.63;75.07
14790;BME280;7486;51.010;10.366;2024-01-06T06:03:58;97203.31;;;2.61;74.53
14790;BME280;7486;51.010;10.366;2024-01-06T06:06:44;97185.47;;;2.50;74.52
14790;BME280;7486;51.010;10.366;2024-01-06T06:09:29;97196.13;;;2.63;74.21
14790;BME280;7486;51.010;10.366;2024-01-06T06:12:15;97191.78;;;2.56;74.58
14790;BME280;7486;51.010;10.366;2024-01-06T06:15:01;97137.34;;;2.16;74.06
14790;BME280;7486;51.010;10.366;2024-01-06T06:17:46;97207.63;;;2.54;74.31
14790;BME280;7486;51.010;10.366;2024-01-06T06:20:32;97200.78;;;2.53;74.59
14790;BME280;7486;51.010;10.366;2024-01-06T06:23:17;97145.53;;;2.12;74.27
14790;BME280;7486;51.010;10.366;2024-01-06T06:26:05;97201.06;;;2.44;74.59
14790;BME280;7486;51.010;10.366;2024-01-06T06:28:51;97203.84;;;2.42;74.72
14790;BME280;7486;51.010;10.366;2024-01-06T06:31:36;97209.00;;;2.36;74.53
14790;BME280;7486;51.010;10.366;2024-01-06T06:34:23;97223.47;;;2.24;74.84
14790;BME280;7486;51.010;10.366;2024-01-06T06:37:09;97212.38;;;2.22;75.41
14790;BME280;7486;51.010;10.366;2024-01-06T06:39:54;97230.25;;;2.33;75.29
14790;BME280;7486;51.010;10.366;2024-01-06T06:42:39;97229.59;;;2.31;74.63
14790;BME280;7486;51.010;10.366;2024-01-06T06:45:29;97234.91;;;2.23;74.17
14790;BME280;7486;51.010;10.366;2024-01-06T06:48:14;97241.09;;;2.07;74.97
14790;BME280;7486;51.010;10.366;2024-01-06T06:51:00;97249.91;;;2.06;74.55
14790;BME280;7486;51.010;10.366;2024-01-06T06:53:45;97257.09;;;2.04;74.67
14790;BME280;7486;51.010;10.366;2024-01-06T06:56:34;97250.59;;;2.00;74.23
14790;BME280;7486;51.010;10.366;2024-01-06T06:59:20;97263.19;;;1.96;74.28
14790;BME280;7486;51.010;10.366;2024-01-06T07:02:06;97266.31;;;1.92;74.73
14790;BME280;7486;51.010;10.366;2024-01-06T07:04:51;97278.13;;;1.88;75.06
14790;BME280;7486;51.010;10.366;2024-01-06T07:07:36;97281.72;;;1.87;75.10
14790;BME280;7486;51.010;10.366;2024-01-06T07:10:22;97274.28;;;1.76;75.06
14790;BME280;7486;51.010;10.366;2024-01-06T07:13:07;97291.81;;;1.67;74.94
14790;BME280;7486;51.010;10.366;2024-01-06T07:15:53;97262.41;;;1.42;75.56
14790;BME280;7486;51.010;10.366;2024-01-06T07:18:52;97295.66;;;1.48;76.06
14790;BME280;7486;51.010;10.366;2024-01-06T07:21:37;97290.09;;;1.51;76.53
14790;BME280;7486;51.010;10.366;2024-01-06T07:24:23;97302.78;;;1.54;76.42
14790;BME280;7486;51.010;10.366;2024-01-06T07:27:08;97282.97;;;1.37;76.44
14790;BME280;7486;51.010;10.366;2024-01-06T07:29:54;97310.97;;;1.51;76.41
14790;BME280;7486;51.010;10.366;2024-01-06T07:32:39;97321.38;;;1.59;76.01
14790;BME280;7486;51.010;10.366;2024-01-06T07:35:25;97292.09;;;1.41;76.46
14790;BME280;7486;51.010;10.366;2024-01-06T07:38:10;97324.59;;;1.61;76.53
14790;BME280;7486;51.010;10.366;2024-01-06T07:40:56;97331.13;;;1.66;76.47
14790;BME280;7486;51.010;10.366;2024-01-06T07:43:42;97337.97;;;1.67;76.62
14790;BME280;7486;51.010;10.366;2024-01-06T07:46:28;97335.16;;;1.68;76.81
14790;BME280;7486;51.010;10.366;2024-01-06T07:49:13;97341.41;;;1.67;77.09
14790;BME280;7486;51.010;10.366;2024-01-06T07:51:59;97341.06;;;1.70;76.82
14790;BME280;7486;51.010;10.366;2024-01-06T07:54:45;97345.47;;;1.70;77.28
14790;BME280;7486;51.010;10.366;2024-01-06T07:57:30;97351.97;;;1.74;77.38
14790;BME280;7486;51.010;10.366;2024-01-06T08:00:16;97358.78;;;1.75;77.52
14790;BME280;7486;51.010;10.366;2024-01-06T08:03:01;97359.44;;;1.77;77.81
14790;BME280;7486;51.010;10.366;2024-01-06T08:05:47;97367.09;;;1.78;78.24
14790;BME280;7486;51.010;10.366;2024-01-06T08:08:32;97359.09;;;1.80;77.97
14790;BME280;7486;51.010;10.366;2024-01-06T08:11:18;97367.25;;;1.85;78.10
14790;BME280;7486;51.010;10.366;2024-01-06T08:14:03;97372.13;;;1.88;78.42
14790;BME280;7486;51.010;10.366;2024-01-06T08:16:49;97369.16;;;1.91;78.18
14790;BME280;7486;51.010;10.366;2024-01-06T08:19:35;97374.66;;;1.96;78.55
14790;BME280;7486;51.010;10.366;2024-01-06T08:22:20;97376.63;;;2.02;79.09
14790;BME280;7486;51.010;10.366;2024-01-06T08:25:07;97380.75;;;1.57;79.56
14790;BME280;7486;51.010;10.366;2024-01-06T08:27:52;97376.06;;;1.84;80.42
14790;BME280;7486;51.010;10.366;2024-01-06T08:30:38;97385.25;;;2.02;80.20
14790;BME280;7486;51.010;10.366;2024-01-06T08:33:24;97386.84;;;2.11;79.34
14790;BME280;7486;51.010;10.366;2024-01-06T08:36:09;97388.75;;;2.18;79.40
14790;BME280;7486;51.010;10.366;2024-01-06T08:38:54;97378.81;;;2.13;79.13
14790;BME280;7486;51.010;10.366;2024-01-06T08:41:40;97396.44;;;2.19;79.29
14790;BME280;7486;51.010;10.366;2024-01-06T08:44:25;97398.34;;;2.25;79.32
14790;BME280;7486;51.010;10.366;2024-01-06T08:47:11;97348.88;;;2.01;79.20
14790;BME280;7486;51.010;10.366;2024-01-06T08:49:56;97386.09;;;2.26;79.71
14790;BME280;7486;51.010;10.366;2024-01-06T08:52:43;97406.88;;;2.42;79.53
14790;BME280;7486;51.010;10.366;2024-01-06T08:55:28;97414.03;;;2.48;79.57
14790;BME280;7486;51.010;10.366;2024-01-06T08:58:14;97411.91;;;2.43;79.15
14790;BME280;7486;51.010;10.366;2024-01-06T09:00:59;97402.00;;;2.39;80.07
14790;BME280;7486;51.010;10.366;2024-01-06T09:03:45;97419.19;;;2.56;79.97
14790;BME280;7486;51.010;10.366;2024-01-06T09:06:31;97421.56;;;2.65;80.45
14790;BME280;7486;51.010;10.366;2024-01-06T09:09:16;97401.88;;;2.55;80.21
14790;BME280;7486;51.010;10.366;2024-01-06T09:12:02;97432.91;;;2.81;80.29
14790;BME280;7486;51.010;10.366;2024-01-06T09:14:47;97438.41;;;2.86;79.94
14790;BME280;7486;51.010;10.366;2024-01-06T09:17:33;97441.94;;;2.93;80.38
14790;BME280;7486;51.010;10.366;2024-01-06T09:20:19;97444.84;;;2.98;79.75
14790;BME280;7486;51.010;10.366;2024-01-06T09:23:04;97449.38;;;3.04;79.85
14790;BME280;7486;51.010;10.366;2024-01-06T09:25:50;97454.16;;;3.15;80.04
14790;BME280;7486;51.010;10.366;2024-01-06T09:28:35;97460.75;;;3.11;79.52
14790;BME280;7486;51.010;10.366;2024-01-06T09:31:21;97462.66;;;3.17;79.63
14790;BME280;7486;51.010;10.366;2024-01-06T09:34:09;97462.47;;;3.18;79.09
14790;BME280;7486;51.010;10.366;2024-01-06T09:36:56;97472.53;;;3.30;78.62
14790;BME280;7486;51.010;10.366;2024-01-06T09:39:41;97451.31;;;3.25;78.41
14790;BME280;7486;51.010;10.366;2024-01-06T09:42:27;97471.22;;;3.11;79.23
14790;BME280;7486;51.010;10.366;2024-01-06T09:45:12;97463.94;;;2.84;80.04
14790;BME280;7486;51.010;10.366;2024-01-06T09:47:58;97469.38;;;2.97;80.37
14790;BME280;7486;51.010;10.366;2024-01-06T09:50:46;97478.09;;;2.89;80.21
14790;BME280;7486;51.010;10.366;2024-01-06T09:53:34;97482.47;;;2.97;80.31
14790;BME280;7486;51.010;10.366;2024-01-06T09:56:19;97411.94;;;2.66;79.50
14790;BME280;7486;51.010;10.366;2024-01-06T09:59:05;97485.75;;;3.13;79.22
14790;BME280;7486;51.010;10.366;2024-01-06T10:01:50;97500.28;;;3.16;79.16
14790;BME280;7486;51.010;10.366;2024-01-06T10:04:36;97482.25;;;3.21;78.74
14790;BME280;7486;51.010;10.366;2024-01-06T10:07:21;97485.94;;;3.27;79.10
14790;BME280;7486;51.010;10.366;2024-01-06T10:10:07;97483.19;;;3.28;78.15
14790;BME280;7486;51.010;10.366;2024-01-06T10:12:54;97487.94;;;3.25;77.71
14790;BME280;7486;51.010;10.366;2024-01-06T10:15:39;97488.75;;;3.25;78.09
14790;BME280;7486;51.010;10.366;2024-01-06T10:18:25;97440.25;;;3.00;78.50
14790;BME280;7486;51.010;10.366;2024-01-06T10:21:12;97489.44;;;3.42;78.76
14790;BME280;7486;51.010;10.366;2024-01-06T10:23:57;97494.78;;;3.48;78.04
14790;BME280;7486;51.010;10.366;2024-01-06T10:26:44;97495.03;;;3.53;78.67
14790;BME280;7486;51.010;10.366;2024-01-06T10:29:30;97492.88;;;3.57;78.00
14790;BME280;7486;51.010;10.366;2024-01-06T10:32:15;97491.44;;;3.54;78.37
14790;BME280;7486;51.010;10.366;2024-01-06T10:35:01;97489.75;;;3.61;78.30
14790;BME280;7486;51.010;10.366;2024-01-06T10:37:47;97472.13;;;3.55;78.45
14790;BME280;7486;51.010;10.366;2024-01-06T10:40:33;97478.19;;;3.71;78.09
14790;BME280;7486;51.010;10.366;2024-01-06T10:43:18;97481.25;;;3.74;77.47
14790;BME280;7486;51.010;10.366;2024-01-06T10:46:05;97483.41;;;3.71;77.46
14790;BME280;7486;51.010;10.366;2024-01-06T10:48:51;97466.44;;;3.66;78.41
14790;BME280;7486;51.010;10.366;2024-01-06T10:51:38;97491.81;;;3.81;78.15
14790;BME280;7486;51.010;10.366;2024-01-06T10:54:24;97485.59;;;3.82;78.01
14790;BME280;7486;51.010;10.366;2024-01-06T10:57:13;97482.59;;;3.85;77.90
14790;BME280;7486;51.010;10.366;2024-01-06T10:59:59;97489.94;;;3.89;77.71
14790;BME280;7486;51.010;10.366;2024-01-06T11:02:46;97491.72;;;3.89;77.57
14790;BME280;7486;51.010;10.366;2024-01-06T11:05:33;97494.72;;;3.86;77.97
14790;BME280;7486;51.010;10.366;2024-01-06T11:08:19;97489.19;;;3.95;77.89
14790;BME280;7486;51.010;10.366;2024-01-06T11:11:05;97483.97;;;3.95;76.71
14790;BME280;7486;51.010;10.366;2024-01-06T11:13:51;97487.13;;;3.76;76.30
14790;BME280;7486;51.010;10.366;2024-01-06T11:16:37;97478.63;;;3.89;76.94
14790;BME280;7486;51.010;10.366;2024-01-06T11:22:32;97471.13;;;4.00;76.42
14790;BME280;7486;51.010;10.366;2024-01-06T11:25:19;97456.31;;;3.93;76.05
14790;BME280;7486;51.010;10.366;2024-01-06T11:28:07;97477.00;;;3.88;75.91
14790;BME280;7486;51.010;10.366;2024-01-06T11:31:08;97475.84;;;3.90;76.52
14790;BME280;7486;51.010;10.366;2024-01-06T11:33:54;97415.16;;;3.57;75.97
14790;BME280;7486;51.010;10.366;2024-01-06T11:36:40;97469.66;;;3.98;76.60
14790;BME280;7486;51.010;10.366;2024-01-06T11:39:36;97490.53;;;4.06;75.49
14790;BME280;7486;51.010;10.366;2024-01-06T11:42:31;97487.75;;;4.07;76.15
14790;BME280;7486;51.010;10.366;2024-01-06T11:45:18;97453.50;;;3.94;75.75
14790;BME280;7486;51.010;10.366;2024-01-06T11:48:08;97480.69;;;4.08;75.11
14790;BME280;7486;51.010;10.366;2024-01-06T11:50:55;97483.41;;;4.00;75.35
14790;BME280;7486;51.010;10.366;2024-01-06T11:53:40;97450.25;;;3.92;75.55
14790;BME280;7486;51.010;10.366;2024-01-06T11:56:26;97457.22;;;4.00;75.13
14790;BME280;7486;51.010;10.366;2024-01-06T11:59:13;97472.44;;;4.11;75.38
14790;BME280;7486;51.010;10.366;2024-01-06T12:01:58;97477.69;;;4.11;75.32
14790;BME280;7486;51.010;10.366;2024-01-06T12:04:56;97470.22;;;3.79;76.71
14790;BME280;7486;51.010;10.366;2024-01-06T12:07:42;97483.88;;;3.89;76.58
14790;BME280;7486;51.010;10.366;2024-01-06T12:10:28;97481.09;;;3.76;78.67
14790;BME280;7486;51.010;10.366;2024-01-06T12:13:14;97487.75;;;3.93;78.22
14790;BME280;7486;51.010;10.366;2024-01-06T12:16:05;97483.06;;;4.03;78.32
14790;BME280;7486;51.010;10.366;2024-01-06T12:18:51;97489.00;;;4.11;77.82
14790;BME280;7486;51.010;10.366;2024-01-06T12:21:36;97492.06;;;4.15;77.76
14790;BME280;7486;51.010;10.366;2024-01-06T12:24:22;97418.75;;;3.71;78.06
14790;BME280;7486;51.010;10.366;2024-01-06T12:27:08;97489.66;;;3.99;78.50
14790;BME280;7486;51.010;10.366;2024-01-06T12:29:54;97487.94;;;4.06;78.78
14790;BME280;7486;51.010;10.366;2024-01-06T12:32:40;97463.09;;;3.87;78.13
14790;BME280;7486;51.010;10.366;2024-01-06T12:35:25;97493.63;;;4.09;78.87
14790;BME280;7486;51.010;10.366;2024-01-06T12:38:11;97487.09;;;4.20;78.62
14790;BME280;7486;51.010;10.366;2024-01-06T12:40:57;97497.22;;;4.23;78.16
14790;BME280;7486;51.010;10.366;2024-01-06T12:43:42;97478.34;;;3.98;77.36
14790;BME280;7486;51.010;10.366;2024-01-06T12:46:28;97494.34;;;4.03;78.48
14790;BME280;7486;51.010;10.366;2024-01-06T12:49:13;97476.28;;;3.64;79.09
14790;BME280;7486;51.010;10.366;2024-01-06T12:51:59;97495.16;;;4.04;79.54
14790;BME280;7486;51.010;10.366;2024-01-06T12:54:45;97496.31;;;4.01;77.72
14790;BME280;7486;51.010;10.366;2024-01-06T12:57:32;97504.78;;;4.18;78.47
14790;BME280;7486;51.010;10.366;2024-01-06T13:00:18;97445.56;;;3.88;76.86
14790;BME280;7486;51.010;10.366;2024-01-06T13:03:04;97496.16;;;4.18;77.17
14790;BME280;7486;51.010;10.366;2024-01-06T13:05:49;97464.09;;;3.86;77.02
14790;BME280;7486;51.010;10.366;2024-01-06T13:08:35;97496.59;;;3.92;78.84
14790;BME280;7486;51.010;10.366;2024-01-06T13:11:20;97493.25;;;3.16;81.29
14790;BME280;7486;51.010;10.366;2024-01-06T13:14:06;97503.81;;;3.60;80.73
14790;BME280;7486;51.010;10.366;2024-01-06T13:16:51;97498.06;;;3.65;80.01
14790;BME280;7486;51.010;10.366;2024-01-06T13:19:36;97497.50;;;3.84;80.12
14790;BME280;7486;51.010;10.366;2024-01-06T13:22:22;97501.47;;;3.65;79.93
14790;BME280;7486;51.010;10.366;2024-01-06T13:25:08;97503.44;;;3.63;78.65
14790;BME280;7486;51.010;10.366;2024-01-06T13:27:53;97514.41;;;3.82;78.80
14790;BME280;7486;51.010;10.366;2024-01-06T13:30:39;97509.97;;;3.68;78.31
14790;BME280;7486;51.010;10.366;2024-01-06T13:33:24;97516.69;;;3.33;79.84
14790;BME280;7486;51.010;10.366;2024-01-06T13:36:10;97517.28;;;3.57;79.48
14790;BME280;7486;51.010;10.366;2024-01-06T13:38:56;97525.88;;;3.81;78.94
14790;BME280;7486;51.010;10.366;2024-01-06T13:41:41;97517.09;;;3.88;78.59
14790;BME280;7486;51.010;10.366;2024-01-06T13:44:27;97522.53;;;3.87;78.56
14790;BME280;7486;51.010;10.366;2024-01-06T13:47:12;97535.19;;;4.12;79.46
14790;BME280;7486;51.010;10.366;2024-01-06T13:49:58;97528.94;;;3.84;78.41
14790;BME280;7486;51.010;10.366;2024-01-06T13:52:44;97534.72;;;3.65;78.46
14790;BME280;7486;51.010;10.366;2024-01-06T13:55:29;97540.66;;;3.74;79.08
14790;BME280;7486;51.010;10.366;2024-01-06T13:58:15;97547.19;;;3.92;78.41
14790;BME280;7486;51.010;10.366;2024-01-06T14:01:00;97534.28;;;4.05;78.16
14790;BME280;7486;51.010;10.366;2024-01-06T14:03:46;97551.19;;;4.18;75.99
14790;BME280;7486;51.010;10.366;2024-01-06T14:06:32;97546.44;;;3.54;79.47
14790;BME280;7486;51.010;10.366;2024-01-06T14:09:18;97547.19;;;3.78;78.73
14790;BME280;7486;51.010;10.366;2024-01-06T14:12:03;97550.09;;;3.83;78.16
14790;BME280;7486;51.010;10.366;2024-01-06T14:14:49;97556.16;;;3.83;78.37
14790;BME280;7486;51.010;10.366;2024-01-06T14:17:35;97554.59;;;3.89;77.83
14790;BME280;7486;51.010;10.366;2024-01-06T14:20:20;97552.81;;;4.04;77.54
14790;BME280;7486;51.010;10.366;2024-01-06T14:23:06;97559.66;;;4.05;76.80
14790;BME280;7486;51.010;10.366;2024-01-06T14:25:52;97556.50;;;4.09;76.95
14790;BME280;7486;51.010;10.366;2024-01-06T14:28:37;97551.97;;;4.18;76.53
14790;BME280;7486;51.010;10.366;2024-01-06T14:31:23;97550.09;;;4.12;76.34
14790;BME280;7486;51.010;10.366;2024-01-06T14:34:09;97557.94;;;3.97;77.59
14790;BME280;7486;51.010;10.366;2024-01-06T14:36:55;97573.91;;;3.88;77.35
14790;BME280;7486;51.010;10.366;2024-01-06T14:39:40;97555.59;;;4.02;77.03
14790;BME280;7486;51.010;10.366;2024-01-06T14:42:26;97569.13;;;3.91;77.75
14790;BME280;7486;51.010;10.366;2024-01-06T14:45:11;97566.31;;;3.63;78.02
14790;BME280;7486;51.010;10.366;2024-01-06T14:47:57;97571.63;;;3.70;79.31
14790;BME280;7486;51.010;10.366;2024-01-06T14:50:42;97569.31;;;3.75;79.72
14790;BME280;7486;51.010;10.366;2024-01-06T14:53:28;97577.88;;;3.84;79.64